Home > Products > Valid Products > MTR

000
SAUS41 KBOX 281355
MTRMQE
METAR KMQE 281354Z AUTO 20012KT 21/17 A3015 RMK AO1 SLP217 T02110172





000
SAUS41 KBOX 281255
MTRMQE
METAR KMQE 281254Z AUTO 21012KT 21/17 A3015 RMK AO1 SLP218 T02110172





000
SAUS41 KBOX 281255
MTRMQE
METAR KMQE 281254Z AUTO 21012KT 21/17 A3015 RMK AO1 SLP218 T02110172





000
SAUS41 KBOX 281155
MTRMQE
METAR KMQE 281154Z AUTO 19009G18KT 19/16 A3016 RMK AO1 SLP220
T01890161 10189 20161 51013





000
SAUS41 KBOX 281155
MTRMQE
METAR KMQE 281154Z AUTO 19009G18KT 19/16 A3016 RMK AO1 SLP220
T01890161 10189 20161 51013





000
SAUS41 KBOX 281056
MTRMQE
METAR KMQE 281054Z AUTO 20011KT 17/16 A3015 RMK AO1 SLP217 T01720161





000
SAUS41 KBOX 281056
MTRMQE
METAR KMQE 281054Z AUTO 20011KT 17/16 A3015 RMK AO1 SLP217 T01720161





000
SAUS41 KBOX 280955
MTRMQE
METAR KMQE 280954Z AUTO 20011KT 17/16 A3013 RMK AO1 SLP211 T01670156





000
SAUS41 KBOX 280855
MTRMQE
METAR KMQE 280854Z AUTO 20013KT 17/16 A3012 RMK AO1 SLP206 T01670156
50001





000
SAUS41 KBOX 280855
MTRMQE
METAR KMQE 280854Z AUTO 20013KT 17/16 A3012 RMK AO1 SLP206 T01670156
50001





000
SAUS41 KBOX 280755
MTRMQE
METAR KMQE 280754Z AUTO 21012KT 17/15 A3013 RMK AO1 SLP208 T01670150





000
SAUS41 KBOX 280655
MTRMQE
METAR KMQE 280654Z AUTO 21012KT 16/15 A3012 RMK AO1 SLP206 T01610150





000
SAUS41 KBOX 280555
MTRMQE
METAR KMQE 280554Z AUTO 20012G22KT 17/15 A3011 RMK AO1 PK WND
19026/0528 SLP204 T01720150 10211 20172 57006





000
SAUS41 KBOX 280555
MTRMQE
METAR KMQE 280554Z AUTO 20012G22KT 17/15 A3011 RMK AO1 PK WND
19026/0528 SLP204 T01720150 10211 20172 57006





000
SAUS41 KBOX 280456
MTRMQE
METAR KMQE 280454Z AUTO 20018G23KT 18/16 A3012 RMK AO1 SLP205
T01780156 402780167





000
SAUS41 KBOX 280355
MTRMQE
METAR KMQE 280354Z AUTO 19017G24KT 18/16 A3013 RMK AO1 PK WND
20026/0308 SLP209 T01830156





000
SAUS41 KBOX 280255
MTRMQE
METAR KMQE 280254Z AUTO 20018G26KT 20/17 A3013 RMK AO1 PK WND
21027/0221 SLP211 T02000167 58001





000
SAUS41 KBOX 280255
MTRMQE
METAR KMQE 280254Z AUTO 20018G26KT 20/17 A3013 RMK AO1 PK WND
21027/0221 SLP211 T02000167 58001





000
SAUS41 KBOX 280155
MTRMQE
METAR KMQE 280154Z AUTO 19016G27KT 21/17 A3014 RMK AO1 PK WND
20028/0122 SLP213 T02060167





000
SAUS41 KBOX 280055
MTRMQE
METAR KMQE 280054Z AUTO 21017G26KT 21/17 A3014 RMK AO1 PK WND
21033/2355 SLP215 T02060172





000
SAUS41 KBOX 280055
MTRMQE
METAR KMQE 280054Z AUTO 21017G26KT 21/17 A3014 RMK AO1 PK WND
21033/2355 SLP215 T02060172





000
SAUS41 KBOX 272355
MTRMQE
METAR KMQE 272354Z AUTO 21024G30KT 21/17 A3013 RMK AO1 PK WND
20035/2336 SLP211 T02110172 10278 20211 53014





000
SAUS41 KBOX 272355
MTRMQE
METAR KMQE 272354Z AUTO 21024G30KT 21/17 A3013 RMK AO1 PK WND
20035/2336 SLP211 T02110172 10278 20211 53014





000
SAUS41 KBOX 272255
MTRMQE
METAR KMQE 272254Z AUTO 21023G34KT 22/17 A3011 RMK AO1 PK WND
21034/2236 SLP205 T02220172





000
SAUS41 KBOX 272155
MTRMQE
METAR KMQE 272154Z AUTO 21017G31KT 24/18 A3010 RMK AO1 PK WND
18035/2115 SLP200 T02390178





000
SAUS41 KBOX 272055
MTRMQE
METAR KMQE 272054Z AUTO 19014G28KT 25/18 A3009 RMK AO1 PK WND
20031/2029 SLP197 T02500183 56010





000
SAUS41 KBOX 272055
MTRMQE
METAR KMQE 272054Z AUTO 19014G28KT 25/18 A3009 RMK AO1 PK WND
20031/2029 SLP197 T02500183 56010





000
SAUS41 KBOX 271955
MTRMQE
METAR KMQE 271954Z AUTO 18019G27KT 26/19 A3009 RMK AO1 PK WND
19031/1936 SLP198 T02610189





000
SAUS41 KBOX 271855
MTRMQE
METAR KMQE 271854Z AUTO 20019G27KT 27/18 A3011 RMK AO1 PK WND
20027/1851 SLP204 T02720183





000
SAUS41 KBOX 271755
MTRMQE
METAR KMQE 271754Z AUTO 18016G26KT 28/18 A3012 RMK AO1 PK WND
20029/1710 SLP207 T02780183 10278 20189 58012





000
SAUS41 KBOX 271656
MTRMQE
METAR KMQE 271654Z AUTO 20015G24KT 27/18 A3015 RMK AO1 PK WND
21026/1620 SLP216 T02720183





000
SAUS41 KBOX 271656
MTRMQE
METAR KMQE 271654Z AUTO 20015G24KT 27/18 A3015 RMK AO1 PK WND
21026/1620 SLP216 T02720183





000
SAUS41 KBOX 271555
MTRMQE
METAR KMQE 271554Z AUTO 19013G19KT 26/18 A3016 RMK AO1 SLP219
T02610178





000
SAUS41 KBOX 271455
MTRMQE
METAR KMQE 271454Z AUTO 19014G19KT 24/18 A3016 RMK AO1 SLP221
T02440178 58003





000
SAUS41 KBOX 271355
MTRMQE
METAR KMQE 271354Z AUTO 20014G18KT 23/17 A3017 RMK AO1 SLP223
T02280172





000
SAUS41 KBOX 271355
MTRMQE
METAR KMQE 271354Z AUTO 20014G18KT 23/17 A3017 RMK AO1 SLP223
T02280172





000
SAUS41 KBOX 271255
MTRMQE
METAR KMQE 271254Z AUTO 20011G19KT 21/16 A3017 RMK AO1 SLP223
T02060161





000
SAUS41 KBOX 271255
MTRMQE
METAR KMQE 271254Z AUTO 20011G19KT 21/16 A3017 RMK AO1 SLP223
T02060161





000
SAUS41 KBOX 271155
MTRMQE
METAR KMQE 271154Z AUTO 19012G17KT 19/16 A3017 RMK AO1 SLP223
T01940156 10194 20167 50005





000
SAUS41 KBOX 271055
MTRMQE
METAR KMQE 271054Z AUTO 19013G20KT 17/15 A3017 RMK AO1 SLP224
T01670150





000
SAUS41 KBOX 271055
MTRMQE
METAR KMQE 271054Z AUTO 19013G20KT 17/15 A3017 RMK AO1 SLP224
T01670150





000
SAUS41 KBOX 270955
MTRMQE
METAR KMQE 270954Z AUTO 20014KT 17/15 A3017 RMK AO1 SLP222 T01670150





000
SAUS41 KBOX 270855
MTRMQE
METAR KMQE 270854Z AUTO 20014G20KT 17/15 A3015 RMK AO1 SLP218
T01670150 55002





000
SAUS41 KBOX 270855
MTRMQE
METAR KMQE 270854Z AUTO 20014G20KT 17/15 A3015 RMK AO1 SLP218
T01670150 55002





000
SAUS41 KBOX 270755
MTRMQE
METAR KMQE 270754Z AUTO 20013G20KT 17/15 A3015 RMK AO1 SLP216
T01670150





000
SAUS41 KBOX 270655
MTRMQE
METAR KMQE 270654Z AUTO 20015KT 17/15 A3015 RMK AO1 SLP217 T01720150





000
SAUS41 KBOX 270655
MTRMQE
METAR KMQE 270654Z AUTO 20015KT 17/15 A3015 RMK AO1 SLP217 T01720150





000
SAUS41 KBOX 270555
MTRMQE
METAR KMQE 270554Z AUTO 20014KT 18/14 A3016 RMK AO1 SLP220 T01780144
10239 20178 50002





000
SAUS41 KBOX 270455
MTRMQE
METAR KMQE 270454Z AUTO 20014G20KT 19/14 A3017 RMK AO1 SLP222
T01890144 402830156





000
SAUS41 KBOX 270455
MTRMQE
METAR KMQE 270454Z AUTO 20014G20KT 19/14 A3017 RMK AO1 SLP222
T01890144 402830156





000
SAUS41 KBOX 270355
MTRMQE
METAR KMQE 270354Z AUTO 21013G21KT 19/15 A3017 RMK AO1 SLP223
T01940150





000
SAUS41 KBOX 270255
MTRMQE
METAR KMQE 270254Z AUTO 21014G21KT 20/16 A3016 RMK AO1 SLP219
T02000156 53009





000
SAUS41 KBOX 270155
MTRMQE
METAR KMQE 270154Z AUTO 21015KT 21/16 A3015 RMK AO1 SLP216 T02110156





000
SAUS41 KBOX 270055
MTRMQE
METAR KMQE 270054Z AUTO 21014KT 22/15 A3013 RMK AO1 SLP211 T02220150





000
SAUS41 KBOX 262355
MTRMQE
METAR KMQE 262354Z AUTO 20016G24KT 24/15 A3013 RMK AO1 PK WND
20026/2328 SLP209 T02390150 10283 20239 53004





000
SAUS41 KBOX 262257 COR
MTRMQE
METAR KMQE 262254Z AUTO 21014G24KT 26/15 A3013 RMK AO1 SLP208
T02560150





000
SAUS41 KBOX 262155
MTRMQE
METAR KMQE 262154Z AUTO 21018G26KT 27/16 A3012 RMK AO1 PK WND
19026/2149 SLP205 T02720156





000
SAUS41 KBOX 262055
MTRMQE
METAR KMQE 262054Z AUTO 20017G23KT 28/17 A3012 RMK AO1 SLP205
T02780167 56008





000
SAUS41 KBOX 261955
MTRMQE
METAR KMQE 261954Z AUTO 20017G22KT 28/17 A3012 RMK AO1 SLP206
T02830172





000
SAUS41 KBOX 261855
MTRMQE
METAR KMQE 261854Z AUTO 23012G18KT 28/17 A3013 RMK AO1 SLP210
T02780167





000
SAUS41 KBOX 261755
MTRMQE
METAR KMQE 261754Z AUTO 22016G22KT 27/17 A3014 RMK AO1 SLP213
T02720167 10272 20189 58010





000
SAUS41 KBOX 261655
MTRMQE
METAR KMQE 261654Z AUTO 20014G23KT 26/16 A3016 RMK AO1 SLP219
T02560161





000
SAUS41 KBOX 261555
MTRMQE
METAR KMQE 261554Z AUTO 22014KT 23/16 A3018 RMK AO1 SLP226 T02280156





000
SAUS41 KBOX 261455
MTRMQE
METAR KMQE 261454Z AUTO 21014KT 23/15 A3017 RMK AO1 SLP225 T02280150
51001





000
SAUS41 KBOX 261355
MTRMQE
METAR KMQE 261354Z AUTO 21017G21KT 23/15 A3017 RMK AO1 SLP223
T02280150





000
SAUS41 KBOX 261355
MTRMQE
METAR KMQE 261354Z AUTO 21017G21KT 23/15 A3017 RMK AO1 SLP223
T02280150





000
SAUS41 KBOX 261255
MTRMQE
METAR KMQE 261254Z AUTO 21015G20KT 21/14 A3018 RMK AO1 SLP226
T02110144





000
SAUS41 KBOX 261255
MTRMQE
METAR KMQE 261254Z AUTO 21015G20KT 21/14 A3018 RMK AO1 SLP226
T02110144





000
SAUS41 KBOX 261155
MTRMQE
METAR KMQE 261154Z AUTO 21015G21KT 19/13 A3017 RMK AO1 SLP223
T01890133 10189 20156 53011





000
SAUS41 KBOX 261055
MTRMQE
METAR KMQE 261054Z AUTO 19014G22KT 17/13 A3015 RMK AO1 SLP219
T01670128 $





000
SAUS41 KBOX 261055
MTRMQE
METAR KMQE 261054Z AUTO 19014G22KT 17/13 A3015 RMK AO1 SLP219
T01670128 $





000
SAUS41 KBOX 260955
MTRMQE
METAR KMQE 260954Z AUTO 20016G23KT 16/11 A3014 RMK AO1 PK WND
20026/0859 SLP215 T01560111 $





000
SAUS41 KBOX 260855
MTRMQE
METAR KMQE 260854Z AUTO 20019G26KT 16/11 A3013 RMK AO1 PK WND
20027/0757 SLP212 T01610111 55001 $





000
SAUS41 KBOX 260855
MTRMQE
METAR KMQE 260854Z AUTO 20019G26KT 16/11 A3013 RMK AO1 PK WND
20027/0757 SLP212 T01610111 55001 $





000
SAUS41 KBOX 260755
MTRMQE
METAR KMQE 260754Z AUTO 20019G26KT 17/12 A3013 RMK AO1 PK WND
21026/0734 SLP209 T01670117 $





000
SAUS41 KBOX 260655
MTRMQE
METAR KMQE 260654Z AUTO 21016KT 17/12 A3014 RMK AO1 SLP213 T01670122
$





000
SAUS41 KBOX 260555
MTRMQE
METAR KMQE 260554Z AUTO 20016G26KT 17/12 A3014 RMK AO1 PK WND
20026/0552 SLP212 T01720122 10194 20167 58008 $





000
SAUS41 KBOX 260455
MTRMQE
METAR KMQE 260454Z AUTO 20017G24KT 17/13 A3015 RMK AO1 SLP218
T01720128 402610133 $





000
SAUS41 KBOX 260356
MTRMQE
METAR KMQE 260354Z AUTO 20016KT 17/13 A3017 RMK AO1 SLP222 T01670128
$





000
SAUS41 KBOX 260255
MTRMQE
METAR KMQE 260254Z AUTO 20018G24KT 17/13 A3016 RMK AO1 PK WND
20026/0225 SLP221 T01670133 57002 $





000
SAUS41 KBOX 260255
MTRMQE
METAR KMQE 260254Z AUTO 20018G24KT 17/13 A3016 RMK AO1 PK WND
20026/0225 SLP221 T01670133 57002 $





000
SAUS41 KBOX 260155
MTRMQE
METAR KMQE 260154Z AUTO 20016G27KT 18/13 A3017 RMK AO1 PK WND
21027/0152 SLP223 T01780133 $





000
SAUS41 KBOX 260102 COR
MTRMQE
METAR KMQE 260054Z AUTO 19017G22KT 18/13 A3016 RMK AO1 SLP222
T01830128 $





000
SAUS41 KBOX 260059 COR
MTRMQE
METAR KMQE 260054Z AUTO 19017G22KT 18/13 A3016 RMK AO1 SLP222
T01830128 $





000
SAUS41 KBOX 260057 COR
MTRMQE
METAR KMQE 260054Z AUTO 19017G22KT 18/13 A3016 RMK AO1 SLP222
T01830128 $





000
SAUS41 KBOX 260057 COR
MTRMQE
METAR KMQE 260054Z AUTO 19017G22KT 18/13 A3016 RMK AO1 SLP222
T01830128 $





000
SAUS41 KBOX 260055
MTRMQE
METAR KMQE 260054Z AUTO 19017G22KT 18/13 A3016 RMK AO1 SLP222
T01830128 $





000
SAUS41 KBOX 252355
MTRMQE
METAR KMQE 252354Z AUTO 18014G19KT 20/13 A3017 RMK AO1 SLP224
T02000133 10261 20200 57002 $





000
SAUS41 KBOX 252355
MTRMQE
METAR KMQE 252354Z AUTO 18014G19KT 20/13 A3017 RMK AO1 SLP224
T02000133 10261 20200 57002 $





000
SAUS41 KBOX 252255
MTRMQE
METAR KMQE 252254Z AUTO 19014G24KT 21/13 A3017 RMK AO1 SLP225
T02110133 $





000
SAUS41 KBOX 252155
MTRMQE
METAR KMQE 252154Z AUTO 19012G23KT 23/13 A3018 RMK AO1 SLP227
T02280133 $





000
SAUS41 KBOX 252055
MTRMQE
METAR KMQE 252054Z AUTO 18012G21KT 24/13 A3018 RMK AO1 SLP227
T02390128 58013 $





000
SAUS41 KBOX 251955
MTRMQE
METAR KMQE 251954Z AUTO 18013G20KT 24/13 A3019 RMK AO1 SLP231
T02440128 $





000
SAUS41 KBOX 251855
MTRMQE
METAR KMQE 251854Z AUTO 19011G16KT 24/13 A3021 RMK AO1 SLP238
T02440133 $





000
SAUS41 KBOX 251855
MTRMQE
METAR KMQE 251854Z AUTO 19011G16KT 24/13 A3021 RMK AO1 SLP238
T02440133 $





000
SAUS41 KBOX 251755
MTRMQE
METAR KMQE 251754Z AUTO 20011G16KT 26/13 A3022 RMK AO1 SLP239
T02610133 10261 20172 58011 $





000
SAUS41 KBOX 251755
MTRMQE
METAR KMQE 251754Z AUTO 20011G16KT 26/13 A3022 RMK AO1 SLP239
T02610133 10261 20172 58011 $





000
SAUS41 KBOX 251656
MTRMQE
METAR KMQE 251654Z AUTO 21012KT 25/11 A3023 RMK AO1 SLP245 T02500106
$





000
SAUS41 KBOX 251555
MTRMQE
METAR KMQE 251554Z AUTO 27008KT 24/09 A3024 RMK AO1 SLP249 T02390094
$





000
SAUS41 KBOX 251455
MTRMQE
METAR KMQE 251454Z AUTO 26009KT 24/11 A3025 RMK AO1 SLP250 T02440106
53002 $





    US Dept of Commerce
    National Oceanic and Atmospheric Administration
    National Weather Service
    1325 East West Highway
    Silver Spring, MD 20910
    Page Author: NWS Internet Services Team
Disclaimer
Information Quality
Credits
Glossary
Privacy Policy
Freedom of Information Act (FOIA)
About Us
Career Opportunities